sensor_id;sensor_type;location;lat;lon;timestamp;P1;durP1;ratioP1;P2;durP2;ratioP2
14526;SDS011;7350;51.208;4.238;2022-10-30T00:02:05;19.48;;;11.50;;
14526;SDS011;7350;51.208;4.238;2022-10-30T00:04:32;16.30;;;9.70;;
14526;SDS011;7350;51.208;4.238;2022-10-30T00:06:59;10.73;;;7.15;;
14526;SDS011;7350;51.208;4.238;2022-10-30T00:09:27;13.00;;;7.60;;
14526;SDS011;7350;51.208;4.238;2022-10-30T00:11:54;14.57;;;6.97;;
14526;SDS011;7350;51.208;4.238;2022-10-30T00:14:21;14.38;;;6.95;;
14526;SDS011;7350;51.208;4.238;2022-10-30T00:16:48;15.52;;;6.60;;
14526;SDS011;7350;51.208;4.238;2022-10-30T00:19:14;11.18;;;7.18;;
14526;SDS011;7350;51.208;4.238;2022-10-30T00:21:41;13.38;;;6.75;;
14526;SDS011;7350;51.208;4.238;2022-10-30T00:24:08;13.75;;;6.85;;
14526;SDS011;7350;51.208;4.238;2022-10-30T00:26:37;14.85;;;7.15;;
14526;SDS011;7350;51.208;4.238;2022-10-30T00:29:04;15.68;;;7.50;;
14526;SDS011;7350;51.208;4.238;2022-10-30T00:31:31;18.17;;;7.15;;
14526;SDS011;7350;51.208;4.238;2022-10-30T00:33:58;10.82;;;7.20;;
14526;SDS011;7350;51.208;4.238;2022-10-30T00:36:25;12.88;;;6.72;;
14526;SDS011;7350;51.208;4.238;2022-10-30T00:38:52;12.93;;;7.20;;
14526;SDS011;7350;51.208;4.238;2022-10-30T00:41:19;15.73;;;7.90;;
14526;SDS011;7350;51.208;4.238;2022-10-30T00:43:49;17.42;;;8.23;;
14526;SDS011;7350;51.208;4.238;2022-10-30T00:46:17;15.77;;;7.20;;
14526;SDS011;7350;51.208;4.238;2022-10-30T00:48:49;11.25;;;6.97;;
14526;SDS011;7350;51.208;4.238;2022-10-30T00:51:19;13.20;;;7.07;;
14526;SDS011;7350;51.208;4.238;2022-10-30T00:53:47;12.13;;;6.97;;
14526;SDS011;7350;51.208;4.238;2022-10-30T00:56:15;14.15;;;7.18;;
14526;SDS011;7350;51.208;4.238;2022-10-30T00:58:46;14.38;;;6.95;;
14526;SDS011;7350;51.208;4.238;2022-10-30T01:01:18;14.10;;;7.25;;
14526;SDS011;7350;51.208;4.238;2022-10-30T01:03:47;15.05;;;7.38;;
14526;SDS011;7350;51.208;4.238;2022-10-30T01:06:16;12.55;;;6.63;;
14526;SDS011;7350;51.208;4.238;2022-10-30T01:08:44;11.30;;;6.30;;
14526;SDS011;7350;51.208;4.238;2022-10-30T01:11:12;14.02;;;6.90;;
14526;SDS011;7350;51.208;4.238;2022-10-30T01:13:39;10.90;;;6.78;;
14526;SDS011;7350;51.208;4.238;2022-10-30T01:16:16;12.73;;;7.15;;
14526;SDS011;7350;51.208;4.238;2022-10-30T01:18:57;14.45;;;7.53;;
14526;SDS011;7350;51.208;4.238;2022-10-30T01:21:38;17.00;;;7.47;;
14526;SDS011;7350;51.208;4.238;2022-10-30T01:24:24;17.08;;;7.10;;
14526;SDS011;7350;51.208;4.238;2022-10-30T01:27:04;11.75;;;7.32;;
14526;SDS011;7350;51.208;4.238;2022-10-30T01:29:44;12.38;;;7.40;;
14526;SDS011;7350;51.208;4.238;2022-10-30T01:32:25;12.93;;;7.15;;
14526;SDS011;7350;51.208;4.238;2022-10-30T01:35:03;13.93;;;7.25;;
14526;SDS011;7350;51.208;4.238;2022-10-30T01:37:36;13.43;;;6.90;;
14526;SDS011;7350;51.208;4.238;2022-10-30T01:40:08;16.80;;;8.52;;
14526;SDS011;7350;51.208;4.238;2022-10-30T01:42:40;13.05;;;7.07;;
14526;SDS011;7350;51.208;4.238;2022-10-30T01:45:10;12.32;;;6.70;;
14526;SDS011;7350;51.208;4.238;2022-10-30T01:47:46;14.38;;;7.97;;
14526;SDS011;7350;51.208;4.238;2022-10-30T01:50:31;14.63;;;7.68;;
14526;SDS011;7350;51.208;4.238;2022-10-30T01:53:07;17.00;;;7.93;;
14526;SDS011;7350;51.208;4.238;2022-10-30T01:55:43;9.90;;;7.20;;
14526;SDS011;7350;51.208;4.238;2022-10-30T01:58:19;14.27;;;7.40;;
14526;SDS011;7350;51.208;4.238;2022-10-30T02:00:50;14.90;;;7.70;;
14526;SDS011;7350;51.208;4.238;2022-10-30T02:03:21;15.10;;;8.10;;
14526;SDS011;7350;51.208;4.238;2022-10-30T02:05:49;15.70;;;7.78;;
14526;SDS011;7350;51.208;4.238;2022-10-30T02:08:18;12.75;;;7.18;;
14526;SDS011;7350;51.208;4.238;2022-10-30T02:10:45;13.85;;;7.97;;
14526;SDS011;7350;51.208;4.238;2022-10-30T02:13:13;15.55;;;7.68;;
14526;SDS011;7350;51.208;4.238;2022-10-30T02:15:41;12.82;;;7.72;;
14526;SDS011;7350;51.208;4.238;2022-10-30T02:18:09;13.35;;;7.55;;
14526;SDS011;7350;51.208;4.238;2022-10-30T02:20:37;17.73;;;7.80;;
14526;SDS011;7350;51.208;4.238;2022-10-30T02:23:04;14.05;;;7.65;;
14526;SDS011;7350;51.208;4.238;2022-10-30T02:25:32;15.45;;;8.10;;
14526;SDS011;7350;51.208;4.238;2022-10-30T02:28:00;15.30;;;7.80;;
14526;SDS011;7350;51.208;4.238;2022-10-30T02:30:27;15.43;;;7.35;;
14526;SDS011;7350;51.208;4.238;2022-10-30T02:32:54;18.50;;;8.30;;
14526;SDS011;7350;51.208;4.238;2022-10-30T02:35:21;14.88;;;7.20;;
14526;SDS011;7350;51.208;4.238;2022-10-30T02:37:49;18.10;;;8.52;;
14526;SDS011;7350;51.208;4.238;2022-10-30T02:40:16;15.50;;;7.78;;
14526;SDS011;7350;51.208;4.238;2022-10-30T02:42:42;14.10;;;7.43;;
14526;SDS011;7350;51.208;4.238;2022-10-30T02:45:09;17.13;;;7.90;;
14526;SDS011;7350;51.208;4.238;2022-10-30T02:47:36;13.02;;;7.78;;
14526;SDS011;7350;51.208;4.238;2022-10-30T02:50:04;14.80;;;7.72;;
14526;SDS011;7350;51.208;4.238;2022-10-30T02:52:31;16.20;;;8.23;;
14526;SDS011;7350;51.208;4.238;2022-10-30T02:54:59;12.70;;;7.55;;
14526;SDS011;7350;51.208;4.238;2022-10-30T02:57:26;14.60;;;7.80;;
14526;SDS011;7350;51.208;4.238;2022-10-30T02:59:53;13.57;;;8.05;;
14526;SDS011;7350;51.208;4.238;2022-10-30T03:02:20;17.77;;;8.82;;
14526;SDS011;7350;51.208;4.238;2022-10-30T03:04:47;13.73;;;7.78;;
14526;SDS011;7350;51.208;4.238;2022-10-30T03:07:14;15.45;;;7.50;;
14526;SDS011;7350;51.208;4.238;2022-10-30T03:09:41;13.32;;;7.80;;
14526;SDS011;7350;51.208;4.238;2022-10-30T03:12:09;12.48;;;7.93;;
14526;SDS011;7350;51.208;4.238;2022-10-30T03:14:36;16.15;;;7.53;;
14526;SDS011;7350;51.208;4.238;2022-10-30T03:17:03;16.67;;;8.73;;
14526;SDS011;7350;51.208;4.238;2022-10-30T03:19:30;14.80;;;8.32;;
14526;SDS011;7350;51.208;4.238;2022-10-30T03:21:57;12.50;;;8.05;;
14526;SDS011;7350;51.208;4.238;2022-10-30T03:24:24;18.13;;;8.13;;
14526;SDS011;7350;51.208;4.238;2022-10-30T03:26:50;17.13;;;7.82;;
14526;SDS011;7350;51.208;4.238;2022-10-30T03:29:19;13.45;;;8.02;;
14526;SDS011;7350;51.208;4.238;2022-10-30T03:31:46;15.82;;;7.68;;
14526;SDS011;7350;51.208;4.238;2022-10-30T03:34:12;15.38;;;7.82;;
14526;SDS011;7350;51.208;4.238;2022-10-30T03:36:39;15.60;;;7.88;;
14526;SDS011;7350;51.208;4.238;2022-10-30T03:39:07;16.30;;;7.60;;
14526;SDS011;7350;51.208;4.238;2022-10-30T03:41:34;14.82;;;8.35;;
14526;SDS011;7350;51.208;4.238;2022-10-30T03:44:00;14.25;;;8.13;;
14526;SDS011;7350;51.208;4.238;2022-10-30T03:46:29;12.38;;;7.80;;
14526;SDS011;7350;51.208;4.238;2022-10-30T03:48:55;14.02;;;7.75;;
14526;SDS011;7350;51.208;4.238;2022-10-30T03:51:22;16.33;;;7.90;;
14526;SDS011;7350;51.208;4.238;2022-10-30T03:53:49;16.52;;;7.53;;
14526;SDS011;7350;51.208;4.238;2022-10-30T03:56:16;13.93;;;8.45;;
14526;SDS011;7350;51.208;4.238;2022-10-30T03:58:44;12.13;;;7.88;;
14526;SDS011;7350;51.208;4.238;2022-10-30T04:01:11;13.88;;;7.47;;
14526;SDS011;7350;51.208;4.238;2022-10-30T04:03:39;15.63;;;8.35;;
14526;SDS011;7350;51.208;4.238;2022-10-30T04:06:06;12.95;;;8.07;;
14526;SDS011;7350;51.208;4.238;2022-10-30T04:08:33;14.32;;;9.13;;
14526;SDS011;7350;51.208;4.238;2022-10-30T04:11:00;15.50;;;7.80;;
14526;SDS011;7350;51.208;4.238;2022-10-30T04:13:27;13.15;;;8.07;;
14526;SDS011;7350;51.208;4.238;2022-10-30T04:15:54;16.33;;;8.45;;
14526;SDS011;7350;51.208;4.238;2022-10-30T04:18:21;17.73;;;8.68;;
14526;SDS011;7350;51.208;4.238;2022-10-30T04:20:49;13.50;;;8.50;;
14526;SDS011;7350;51.208;4.238;2022-10-30T04:23:16;15.82;;;8.13;;
14526;SDS011;7350;51.208;4.238;2022-10-30T04:25:44;14.98;;;7.90;;
14526;SDS011;7350;51.208;4.238;2022-10-30T04:28:11;15.52;;;8.73;;
14526;SDS011;7350;51.208;4.238;2022-10-30T04:30:38;14.55;;;8.70;;
14526;SDS011;7350;51.208;4.238;2022-10-30T04:33:06;15.88;;;8.98;;
14526;SDS011;7350;51.208;4.238;2022-10-30T04:35:36;12.20;;;7.72;;
14526;SDS011;7350;51.208;4.238;2022-10-30T04:38:05;16.58;;;8.07;;
14526;SDS011;7350;51.208;4.238;2022-10-30T04:40:33;13.23;;;8.73;;
14526;SDS011;7350;51.208;4.238;2022-10-30T04:43:02;15.55;;;7.88;;
14526;SDS011;7350;51.208;4.238;2022-10-30T04:45:29;18.27;;;9.23;;
14526;SDS011;7350;51.208;4.238;2022-10-30T04:48:00;15.32;;;8.25;;
14526;SDS011;7350;51.208;4.238;2022-10-30T04:50:27;17.08;;;8.63;;
14526;SDS011;7350;51.208;4.238;2022-10-30T04:52:58;15.65;;;8.38;;
14526;SDS011;7350;51.208;4.238;2022-10-30T04:55:28;14.57;;;9.07;;
14526;SDS011;7350;51.208;4.238;2022-10-30T04:57:55;15.63;;;8.40;;
14526;SDS011;7350;51.208;4.238;2022-10-30T05:00:26;12.80;;;8.43;;
14526;SDS011;7350;51.208;4.238;2022-10-30T05:02:52;17.73;;;8.82;;
14526;SDS011;7350;51.208;4.238;2022-10-30T05:05:19;14.65;;;8.23;;
14526;SDS011;7350;51.208;4.238;2022-10-30T05:07:46;15.93;;;8.65;;
14526;SDS011;7350;51.208;4.238;2022-10-30T05:10:13;13.68;;;8.48;;
14526;SDS011;7350;51.208;4.238;2022-10-30T05:12:42;21.98;;;8.90;;
14526;SDS011;7350;51.208;4.238;2022-10-30T05:15:11;14.73;;;8.50;;
14526;SDS011;7350;51.208;4.238;2022-10-30T05:17:39;14.02;;;8.43;;
14526;SDS011;7350;51.208;4.238;2022-10-30T05:20:06;17.30;;;9.07;;
14526;SDS011;7350;51.208;4.238;2022-10-30T05:22:34;20.90;;;9.80;;
14526;SDS011;7350;51.208;4.238;2022-10-30T05:25:00;16.63;;;9.32;;
14526;SDS011;7350;51.208;4.238;2022-10-30T05:27:27;15.65;;;9.15;;
14526;SDS011;7350;51.208;4.238;2022-10-30T05:29:56;11.88;;;8.98;;
14526;SDS011;7350;51.208;4.238;2022-10-30T05:32:22;15.32;;;8.65;;
14526;SDS011;7350;51.208;4.238;2022-10-30T05:34:49;17.10;;;9.10;;
14526;SDS011;7350;51.208;4.238;2022-10-30T05:37:16;16.90;;;8.98;;
14526;SDS011;7350;51.208;4.238;2022-10-30T05:39:43;15.95;;;8.98;;
14526;SDS011;7350;51.208;4.238;2022-10-30T05:42:10;13.77;;;8.30;;
14526;SDS011;7350;51.208;4.238;2022-10-30T05:44:37;17.85;;;9.15;;
14526;SDS011;7350;51.208;4.238;2022-10-30T05:47:05;18.40;;;10.10;;
14526;SDS011;7350;51.208;4.238;2022-10-30T05:49:32;17.10;;;9.80;;
14526;SDS011;7350;51.208;4.238;2022-10-30T05:51:59;18.95;;;9.35;;
14526;SDS011;7350;51.208;4.238;2022-10-30T05:54:26;12.27;;;8.93;;
14526;SDS011;7350;51.208;4.238;2022-10-30T05:56:52;17.70;;;8.82;;
14526;SDS011;7350;51.208;4.238;2022-10-30T05:59:19;11.07;;;8.38;;
14526;SDS011;7350;51.208;4.238;2022-10-30T06:01:46;15.80;;;9.23;;
14526;SDS011;7350;51.208;4.238;2022-10-30T06:04:14;13.23;;;8.50;;
14526;SDS011;7350;51.208;4.238;2022-10-30T06:06:41;14.85;;;9.10;;
14526;SDS011;7350;51.208;4.238;2022-10-30T06:09:13;17.40;;;9.65;;
14526;SDS011;7350;51.208;4.238;2022-10-30T06:11:40;15.05;;;8.93;;
14526;SDS011;7350;51.208;4.238;2022-10-30T06:14:07;15.13;;;9.00;;
14526;SDS011;7350;51.208;4.238;2022-10-30T06:16:34;17.15;;;9.27;;
14526;SDS011;7350;51.208;4.238;2022-10-30T06:19:00;15.35;;;10.05;;
14526;SDS011;7350;51.208;4.238;2022-10-30T06:21:29;14.63;;;9.20;;
14526;SDS011;7350;51.208;4.238;2022-10-30T06:23:56;14.02;;;9.55;;
14526;SDS011;7350;51.208;4.238;2022-10-30T06:26:23;17.92;;;9.43;;
14526;SDS011;7350;51.208;4.238;2022-10-30T06:28:49;17.80;;;10.73;;
14526;SDS011;7350;51.208;4.238;2022-10-30T06:31:16;11.10;;;8.65;;
14526;SDS011;7350;51.208;4.238;2022-10-30T06:33:43;16.42;;;10.00;;
14526;SDS011;7350;51.208;4.238;2022-10-30T06:36:10;14.77;;;9.40;;
14526;SDS011;7350;51.208;4.238;2022-10-30T06:38:38;15.10;;;9.00;;
14526;SDS011;7350;51.208;4.238;2022-10-30T06:41:05;23.10;;;9.55;;
14526;SDS011;7350;51.208;4.238;2022-10-30T06:43:32;17.08;;;8.95;;
14526;SDS011;7350;51.208;4.238;2022-10-30T06:45:59;17.45;;;8.90;;
14526;SDS011;7350;51.208;4.238;2022-10-30T06:48:27;16.27;;;9.65;;
14526;SDS011;7350;51.208;4.238;2022-10-30T06:50:54;16.70;;;9.27;;
14526;SDS011;7350;51.208;4.238;2022-10-30T06:53:22;16.42;;;8.77;;
14526;SDS011;7350;51.208;4.238;2022-10-30T06:55:57;13.35;;;8.90;;
14526;SDS011;7350;51.208;4.238;2022-10-30T06:58:24;15.35;;;9.60;;
14526;SDS011;7350;51.208;4.238;2022-10-30T07:00:52;13.98;;;9.23;;
14526;SDS011;7350;51.208;4.238;2022-10-30T07:03:19;17.27;;;8.85;;
14526;SDS011;7350;51.208;4.238;2022-10-30T07:05:47;15.65;;;9.02;;
14526;SDS011;7350;51.208;4.238;2022-10-30T07:08:14;17.80;;;9.40;;
14526;SDS011;7350;51.208;4.238;2022-10-30T07:10:41;15.60;;;9.90;;
14526;SDS011;7350;51.208;4.238;2022-10-30T07:13:09;18.63;;;10.32;;
14526;SDS011;7350;51.208;4.238;2022-10-30T07:15:36;18.27;;;9.88;;
14526;SDS011;7350;51.208;4.238;2022-10-30T07:18:03;18.45;;;9.40;;
14526;SDS011;7350;51.208;4.238;2022-10-30T07:20:31;18.08;;;9.63;;
14526;SDS011;7350;51.208;4.238;2022-10-30T07:22:59;14.60;;;9.98;;
14526;SDS011;7350;51.208;4.238;2022-10-30T07:25:26;20.80;;;10.18;;
14526;SDS011;7350;51.208;4.238;2022-10-30T07:27:54;14.40;;;9.43;;
14526;SDS011;7350;51.208;4.238;2022-10-30T07:30:23;15.65;;;9.90;;
14526;SDS011;7350;51.208;4.238;2022-10-30T07:32:58;19.00;;;9.88;;
14526;SDS011;7350;51.208;4.238;2022-10-30T07:35:26;14.57;;;9.35;;
14526;SDS011;7350;51.208;4.238;2022-10-30T07:37:53;12.88;;;9.05;;
14526;SDS011;7350;51.208;4.238;2022-10-30T07:40:21;14.45;;;10.07;;
14526;SDS011;7350;51.208;4.238;2022-10-30T07:42:48;19.63;;;10.50;;
14526;SDS011;7350;51.208;4.238;2022-10-30T07:45:20;18.25;;;9.70;;
14526;SDS011;7350;51.208;4.238;2022-10-30T07:47:48;16.27;;;9.40;;
14526;SDS011;7350;51.208;4.238;2022-10-30T07:50:15;13.65;;;9.15;;
14526;SDS011;7350;51.208;4.238;2022-10-30T07:52:42;15.45;;;8.93;;
14526;SDS011;7350;51.208;4.238;2022-10-30T07:55:09;15.07;;;9.18;;
14526;SDS011;7350;51.208;4.238;2022-10-30T07:57:36;17.90;;;8.23;;
14526;SDS011;7350;51.208;4.238;2022-10-30T08:00:04;14.68;;;8.63;;
14526;SDS011;7350;51.208;4.238;2022-10-30T08:02:33;12.95;;;8.20;;
14526;SDS011;7350;51.208;4.238;2022-10-30T08:05:01;14.48;;;8.35;;
14526;SDS011;7350;51.208;4.238;2022-10-30T08:07:29;19.50;;;9.45;;
14526;SDS011;7350;51.208;4.238;2022-10-30T08:09:56;17.48;;;9.68;;
14526;SDS011;7350;51.208;4.238;2022-10-30T08:12:23;15.75;;;8.20;;
14526;SDS011;7350;51.208;4.238;2022-10-30T08:14:50;15.55;;;7.90;;
14526;SDS011;7350;51.208;4.238;2022-10-30T08:17:17;16.10;;;8.18;;
14526;SDS011;7350;51.208;4.238;2022-10-30T08:19:45;13.57;;;7.70;;
14526;SDS011;7350;51.208;4.238;2022-10-30T08:22:13;15.05;;;8.18;;
14526;SDS011;7350;51.208;4.238;2022-10-30T08:24:40;12.93;;;8.07;;
14526;SDS011;7350;51.208;4.238;2022-10-30T08:27:08;14.68;;;9.25;;
14526;SDS011;7350;51.208;4.238;2022-10-30T08:29:35;15.07;;;9.63;;
14526;SDS011;7350;51.208;4.238;2022-10-30T08:32:02;14.60;;;9.60;;
14526;SDS011;7350;51.208;4.238;2022-10-30T08:34:29;14.88;;;9.40;;
14526;SDS011;7350;51.208;4.238;2022-10-30T08:36:58;16.30;;;9.65;;
14526;SDS011;7350;51.208;4.238;2022-10-30T08:39:26;19.05;;;10.07;;
14526;SDS011;7350;51.208;4.238;2022-10-30T08:41:55;14.63;;;8.52;;
14526;SDS011;7350;51.208;4.238;2022-10-30T08:44:24;15.43;;;8.13;;
14526;SDS011;7350;51.208;4.238;2022-10-30T08:46:51;12.48;;;7.80;;
14526;SDS011;7350;51.208;4.238;2022-10-30T08:49:18;14.75;;;8.05;;
14526;SDS011;7350;51.208;4.238;2022-10-30T08:51:44;13.75;;;8.25;;
14526;SDS011;7350;51.208;4.238;2022-10-30T08:54:12;18.70;;;8.55;;
14526;SDS011;7350;51.208;4.238;2022-10-30T08:56:40;13.48;;;7.97;;
14526;SDS011;7350;51.208;4.238;2022-10-30T08:59:07;16.70;;;8.82;;
14526;SDS011;7350;51.208;4.238;2022-10-30T09:01:34;14.63;;;8.05;;
14526;SDS011;7350;51.208;4.238;2022-10-30T09:04:01;16.20;;;7.95;;
14526;SDS011;7350;51.208;4.238;2022-10-30T09:06:29;18.02;;;8.07;;
14526;SDS011;7350;51.208;4.238;2022-10-30T09:08:56;10.85;;;7.60;;
14526;SDS011;7350;51.208;4.238;2022-10-30T09:11:23;12.60;;;7.78;;
14526;SDS011;7350;51.208;4.238;2022-10-30T09:13:51;14.43;;;7.50;;
14526;SDS011;7350;51.208;4.238;2022-10-30T09:16:18;14.27;;;7.13;;
14526;SDS011;7350;51.208;4.238;2022-10-30T09:18:45;12.05;;;7.70;;
14526;SDS011;7350;51.208;4.238;2022-10-30T09:21:12;16.25;;;7.40;;
14526;SDS011;7350;51.208;4.238;2022-10-30T09:23:38;11.25;;;7.07;;
14526;SDS011;7350;51.208;4.238;2022-10-30T09:26:07;15.48;;;7.55;;
14526;SDS011;7350;51.208;4.238;2022-10-30T09:28:36;15.10;;;5.95;;
14526;SDS011;7350;51.208;4.238;2022-10-30T09:31:04;13.38;;;7.20;;
14526;SDS011;7350;51.208;4.238;2022-10-30T09:33:31;14.95;;;7.43;;
14526;SDS011;7350;51.208;4.238;2022-10-30T09:35:58;13.60;;;7.25;;
14526;SDS011;7350;51.208;4.238;2022-10-30T09:38:26;16.55;;;7.22;;
14526;SDS011;7350;51.208;4.238;2022-10-30T09:43:51;13.95;;;7.38;;
14526;SDS011;7350;51.208;4.238;2022-10-30T09:46:35;17.52;;;7.70;;
14526;SDS011;7350;51.208;4.238;2022-10-30T09:49:18;11.35;;;6.95;;
14526;SDS011;7350;51.208;4.238;2022-10-30T09:52:15;12.00;;;6.72;;
14526;SDS011;7350;51.208;4.238;2022-10-30T09:54:53;12.23;;;7.25;;
14526;SDS011;7350;51.208;4.238;2022-10-30T09:57:31;18.10;;;7.82;;
14526;SDS011;7350;51.208;4.238;2022-10-30T10:00:04;13.57;;;7.80;;
14526;SDS011;7350;51.208;4.238;2022-10-30T10:02:37;13.30;;;7.63;;
14526;SDS011;7350;51.208;4.238;2022-10-30T10:05:15;17.10;;;7.13;;
14526;SDS011;7350;51.208;4.238;2022-10-30T10:07:46;14.27;;;6.75;;
14526;SDS011;7350;51.208;4.238;2022-10-30T10:10:17;15.48;;;7.55;;
14526;SDS011;7350;51.208;4.238;2022-10-30T10:12:51;11.73;;;6.55;;
14526;SDS011;7350;51.208;4.238;2022-10-30T10:15:20;10.43;;;6.55;;
14526;SDS011;7350;51.208;4.238;2022-10-30T10:18:00;13.85;;;6.85;;
14526;SDS011;7350;51.208;4.238;2022-10-30T10:20:33;13.75;;;6.63;;
14526;SDS011;7350;51.208;4.238;2022-10-30T10:23:08;15.20;;;6.47;;
14526;SDS011;7350;51.208;4.238;2022-10-30T10:25:42;14.77;;;6.65;;
14526;SDS011;7350;51.208;4.238;2022-10-30T10:28:17;11.75;;;6.55;;
14526;SDS011;7350;51.208;4.238;2022-10-30T10:30:54;13.55;;;6.38;;
14526;SDS011;7350;51.208;4.238;2022-10-30T10:33:43;14.57;;;6.68;;
14526;SDS011;7350;51.208;4.238;2022-10-30T10:36:20;14.23;;;6.72;;
14526;SDS011;7350;51.208;4.238;2022-10-30T10:39:00;13.52;;;6.82;;
14526;SDS011;7350;51.208;4.238;2022-10-30T10:41:36;16.73;;;7.95;;
14526;SDS011;7350;51.208;4.238;2022-10-30T10:44:19;17.73;;;7.47;;
14526;SDS011;7350;51.208;4.238;2022-10-30T10:50:12;13.40;;;6.88;;
14526;SDS011;7350;51.208;4.238;2022-10-30T10:52:46;10.98;;;7.38;;
14526;SDS011;7350;51.208;4.238;2022-10-30T10:55:18;13.95;;;6.68;;
14526;SDS011;7350;51.208;4.238;2022-10-30T10:57:47;12.02;;;7.00;;
14526;SDS011;7350;51.208;4.238;2022-10-30T11:00:18;15.30;;;7.53;;
14526;SDS011;7350;51.208;4.238;2022-10-30T11:02:49;15.30;;;8.45;;
14526;SDS011;7350;51.208;4.238;2022-10-30T11:05:25;14.23;;;8.80;;
14526;SDS011;7350;51.208;4.238;2022-10-30T11:07:58;13.15;;;7.68;;
14526;SDS011;7350;51.208;4.238;2022-10-30T11:10:30;12.30;;;8.05;;
14526;SDS011;7350;51.208;4.238;2022-10-30T11:12:57;12.73;;;8.00;;
14526;SDS011;7350;51.208;4.238;2022-10-30T11:15:28;14.60;;;7.70;;
14526;SDS011;7350;51.208;4.238;2022-10-30T11:18:07;14.32;;;8.23;;
14526;SDS011;7350;51.208;4.238;2022-10-30T11:20:39;16.20;;;8.43;;
14526;SDS011;7350;51.208;4.238;2022-10-30T11:26:03;13.70;;;8.68;;
14526;SDS011;7350;51.208;4.238;2022-10-30T11:28:33;15.90;;;8.57;;
14526;SDS011;7350;51.208;4.238;2022-10-30T11:31:15;14.65;;;8.13;;
14526;SDS011;7350;51.208;4.238;2022-10-30T11:33:43;15.60;;;9.00;;
14526;SDS011;7350;51.208;4.238;2022-10-30T11:36:14;15.18;;;8.32;;
14526;SDS011;7350;51.208;4.238;2022-10-30T11:38:42;19.23;;;8.80;;
14526;SDS011;7350;51.208;4.238;2022-10-30T11:41:09;18.05;;;8.43;;
14526;SDS011;7350;51.208;4.238;2022-10-30T11:43:38;14.75;;;8.13;;
14526;SDS011;7350;51.208;4.238;2022-10-30T11:46:06;13.02;;;7.75;;
14526;SDS011;7350;51.208;4.238;2022-10-30T11:48:37;14.68;;;8.02;;
14526;SDS011;7350;51.208;4.238;2022-10-30T11:51:08;14.35;;;7.35;;
14526;SDS011;7350;51.208;4.238;2022-10-30T11:53:39;15.55;;;8.63;;
14526;SDS011;7350;51.208;4.238;2022-10-30T11:56:13;14.68;;;8.18;;
14526;SDS011;7350;51.208;4.238;2022-10-30T11:58:42;17.63;;;8.07;;
14526;SDS011;7350;51.208;4.238;2022-10-30T12:01:13;13.77;;;7.75;;
14526;SDS011;7350;51.208;4.238;2022-10-30T12:03:45;18.92;;;7.82;;
14526;SDS011;7350;51.208;4.238;2022-10-30T12:06:16;15.20;;;7.00;;
14526;SDS011;7350;51.208;4.238;2022-10-30T12:08:58;13.85;;;7.13;;
14526;SDS011;7350;51.208;4.238;2022-10-30T12:11:27;13.18;;;7.75;;
14526;SDS011;7350;51.208;4.238;2022-10-30T12:13:56;14.63;;;7.00;;
14526;SDS011;7350;51.208;4.238;2022-10-30T12:16:23;13.80;;;6.70;;
14526;SDS011;7350;51.208;4.238;2022-10-30T12:18:52;13.30;;;7.07;;
14526;SDS011;7350;51.208;4.238;2022-10-30T12:21:25;12.00;;;7.35;;
14526;SDS011;7350;51.208;4.238;2022-10-30T12:23:54;11.05;;;6.82;;
14526;SDS011;7350;51.208;4.238;2022-10-30T12:26:26;14.60;;;7.35;;
14526;SDS011;7350;51.208;4.238;2022-10-30T12:28:56;14.00;;;7.68;;
14526;SDS011;7350;51.208;4.238;2022-10-30T12:31:29;15.82;;;7.70;;
14526;SDS011;7350;51.208;4.238;2022-10-30T12:34:06;18.48;;;8.13;;
14526;SDS011;7350;51.208;4.238;2022-10-30T12:36:55;13.88;;;7.32;;
14526;SDS011;7350;51.208;4.238;2022-10-30T12:39:30;12.68;;;6.88;;
14526;SDS011;7350;51.208;4.238;2022-10-30T12:42:07;14.15;;;6.90;;
14526;SDS011;7350;51.208;4.238;2022-10-30T12:44:40;14.43;;;6.95;;
14526;SDS011;7350;51.208;4.238;2022-10-30T12:47:12;11.73;;;6.82;;
14526;SDS011;7350;51.208;4.238;2022-10-30T12:49:46;16.30;;;7.75;;
14526;SDS011;7350;51.208;4.238;2022-10-30T12:52:17;16.20;;;7.60;;
14526;SDS011;7350;51.208;4.238;2022-10-30T12:54:50;12.32;;;7.63;;
14526;SDS011;7350;51.208;4.238;2022-10-30T12:57:22;16.08;;;7.85;;
14526;SDS011;7350;51.208;4.238;2022-10-30T12:59:56;19.95;;;7.75;;
14526;SDS011;7350;51.208;4.238;2022-10-30T13:02:35;12.57;;;7.57;;
14526;SDS011;7350;51.208;4.238;2022-10-30T13:05:13;15.32;;;8.02;;
14526;SDS011;7350;51.208;4.238;2022-10-30T13:07:50;14.00;;;7.72;;
14526;SDS011;7350;51.208;4.238;2022-10-30T13:10:27;13.95;;;7.88;;
14526;SDS011;7350;51.208;4.238;2022-10-30T13:12:58;12.32;;;7.55;;
14526;SDS011;7350;51.208;4.238;2022-10-30T13:15:32;17.38;;;7.55;;
14526;SDS011;7350;51.208;4.238;2022-10-30T13:18:08;13.30;;;7.97;;
14526;SDS011;7350;51.208;4.238;2022-10-30T13:20:40;11.88;;;6.68;;
14526;SDS011;7350;51.208;4.238;2022-10-30T13:23:14;12.00;;;6.55;;
14526;SDS011;7350;51.208;4.238;2022-10-30T13:25:49;12.63;;;6.88;;
14526;SDS011;7350;51.208;4.238;2022-10-30T13:28:27;10.05;;;6.45;;
14526;SDS011;7350;51.208;4.238;2022-10-30T13:31:00;12.00;;;7.10;;
14526;SDS011;7350;51.208;4.238;2022-10-30T13:33:35;12.02;;;6.97;;
14526;SDS011;7350;51.208;4.238;2022-10-30T13:36:07;13.35;;;6.63;;
14526;SDS011;7350;51.208;4.238;2022-10-30T13:38:42;10.65;;;6.43;;
14526;SDS011;7350;51.208;4.238;2022-10-30T13:41:19;11.52;;;7.40;;
14526;SDS011;7350;51.208;4.238;2022-10-30T13:43:58;14.80;;;8.00;;
14526;SDS011;7350;51.208;4.238;2022-10-30T13:46:36;12.85;;;7.97;;
14526;SDS011;7350;51.208;4.238;2022-10-30T13:49:27;13.23;;;7.85;;
14526;SDS011;7350;51.208;4.238;2022-10-30T13:52:08;14.65;;;8.32;;
14526;SDS011;7350;51.208;4.238;2022-10-30T13:54:38;14.48;;;7.95;;
14526;SDS011;7350;51.208;4.238;2022-10-30T13:57:13;11.98;;;8.85;;
14526;SDS011;7350;51.208;4.238;2022-10-30T13:59:54;15.15;;;9.20;;
14526;SDS011;7350;51.208;4.238;2022-10-30T14:02:32;15.52;;;9.60;;
14526;SDS011;7350;51.208;4.238;2022-10-30T14:05:12;16.33;;;9.05;;
14526;SDS011;7350;51.208;4.238;2022-10-30T14:07:49;16.50;;;10.02;;
14526;SDS011;7350;51.208;4.238;2022-10-30T14:10:29;16.75;;;9.23;;
14526;SDS011;7350;51.208;4.238;2022-10-30T14:13:13;18.55;;;10.25;;
14526;SDS011;7350;51.208;4.238;2022-10-30T14:15:56;19.77;;;9.63;;
14526;SDS011;7350;51.208;4.238;2022-10-30T14:18:28;14.05;;;9.77;;
14526;SDS011;7350;51.208;4.238;2022-10-30T14:20:57;18.90;;;10.35;;
14526;SDS011;7350;51.208;4.238;2022-10-30T14:23:44;15.73;;;9.65;;
14526;SDS011;7350;51.208;4.238;2022-10-30T14:26:12;16.20;;;10.32;;
14526;SDS011;7350;51.208;4.238;2022-10-30T14:28:45;19.50;;;11.07;;
14526;SDS011;7350;51.208;4.238;2022-10-30T14:31:14;18.15;;;10.55;;
14526;SDS011;7350;51.208;4.238;2022-10-30T14:33:44;16.38;;;10.77;;
14526;SDS011;7350;51.208;4.238;2022-10-30T14:36:16;16.50;;;9.82;;
14526;SDS011;7350;51.208;4.238;2022-10-30T14:38:58;14.63;;;7.78;;
14526;SDS011;7350;51.208;4.238;2022-10-30T14:41:29;11.02;;;5.85;;
14526;SDS011;7350;51.208;4.238;2022-10-30T14:46:58;9.23;;;3.53;;
14526;SDS011;7350;51.208;4.238;2022-10-30T14:49:45;10.10;;;4.07;;
14526;SDS011;7350;51.208;4.238;2022-10-30T14:52:16;6.75;;;3.00;;
14526;SDS011;7350;51.208;4.238;2022-10-30T14:54:57;8.80;;;3.03;;
14526;SDS011;7350;51.208;4.238;2022-10-30T14:57:44;6.97;;;3.55;;
14526;SDS011;7350;51.208;4.238;2022-10-30T15:00:28;7.30;;;3.28;;
14526;SDS011;7350;51.208;4.238;2022-10-30T15:03:04;7.18;;;3.25;;
14526;SDS011;7350;51.208;4.238;2022-10-30T15:05:39;6.20;;;2.88;;
14526;SDS011;7350;51.208;4.238;2022-10-30T15:11:02;5.78;;;2.60;;
14526;SDS011;7350;51.208;4.238;2022-10-30T15:13:49;8.82;;;2.83;;
14526;SDS011;7350;51.208;4.238;2022-10-30T15:16:21;6.75;;;2.60;;
14526;SDS011;7350;51.208;4.238;2022-10-30T15:18:54;6.20;;;2.50;;
14526;SDS011;7350;51.208;4.238;2022-10-30T15:21:24;6.22;;;2.70;;
14526;SDS011;7350;51.208;4.238;2022-10-30T15:23:54;6.25;;;2.80;;